createdAt,value
2022-11-07T00:01:36.077Z,100123.50
2022-11-07T00:04:03.161Z,100126.63
2022-11-07T00:06:30.062Z,100110.91
2022-11-07T00:08:58.695Z,100096.16
2022-11-07T00:11:25.158Z,100099.31
2022-11-07T00:13:51.736Z,100083.09
2022-11-07T00:16:18.262Z,100089.25
2022-11-07T00:18:45.060Z,100090.75
2022-11-07T00:21:11.641Z,100088.28
2022-11-07T00:23:41.204Z,100085.44
2022-11-07T00:26:14.657Z,100076.75
2022-11-07T00:28:43.000Z,100071.47
2022-11-07T00:31:12.689Z,100061.06
2022-11-07T00:33:39.256Z,100063.59
2022-11-07T00:36:07.324Z,100053.97
2022-11-07T00:38:33.849Z,100047.19
2022-11-07T00:41:03.032Z,100045.22
2022-11-07T00:43:30.580Z,100038.53
2022-11-07T00:45:57.836Z,100040.28
2022-11-07T00:48:24.486Z,100029.88
2022-11-07T00:50:51.551Z,100027.28
2022-11-07T00:53:18.313Z,100020.22
2022-11-07T00:55:45.105Z,100019.28
2022-11-07T00:58:14.135Z,100015.69
2022-11-07T01:00:41.944Z,100010.47
2022-11-07T01:03:35.352Z,100026.31
2022-11-07T01:06:03.758Z,100017.63
2022-11-07T01:08:31.074Z,100034.66
2022-11-07T01:11:01.067Z,100024.56
2022-11-07T01:13:27.541Z,100022.03
2022-11-07T01:15:54.206Z,100024.47
2022-11-07T01:18:20.997Z,100025.31
2022-11-07T01:20:49.236Z,100020.88
2022-11-07T01:23:17.210Z,100018.09
2022-11-07T01:25:44.218Z,100013.72
2022-11-07T01:28:11.162Z,100005.91
2022-11-07T01:30:38.844Z,100012.81
2022-11-07T01:33:05.906Z,100005.44
2022-11-07T01:35:33.673Z,99992.25
2022-11-07T01:38:00.282Z,99970.63
2022-11-07T01:40:27.526Z,99964.16
2022-11-07T01:42:54.651Z,99968.19
2022-11-07T01:45:25.778Z,99965.28
2022-11-07T01:47:55.253Z,99947.22
2022-11-07T01:50:24.664Z,99933.59
2022-11-07T01:52:53.191Z,99926.84
2022-11-07T01:55:27.998Z,99930.22
2022-11-07T01:58:08.728Z,99934.81
2022-11-07T02:00:36.663Z,99940.00
2022-11-07T02:03:09.857Z,99949.16
2022-11-07T02:05:52.694Z,99947.13
2022-11-07T02:08:20.726Z,99935.31
2022-11-07T02:10:48.632Z,99942.81
2022-11-07T02:13:23.794Z,99943.84
2022-11-07T02:15:50.557Z,99932.88
2022-11-07T02:18:17.142Z,99933.56
2022-11-07T02:20:45.529Z,99929.19
2022-11-07T02:23:24.759Z,99920.44
2022-11-07T02:25:51.472Z,99914.31
2022-11-07T02:28:20.781Z,99918.03
2022-11-07T02:30:47.316Z,99914.66
2022-11-07T02:33:22.627Z,99922.13
2022-11-07T02:35:51.881Z,99909.16
2022-11-07T02:38:48.905Z,99907.28
2022-11-07T02:41:25.237Z,99896.13
2022-11-07T02:43:54.868Z,99887.53
2022-11-07T02:46:22.575Z,99892.13
2022-11-07T02:48:51.934Z,99905.72
2022-11-07T02:51:18.569Z,99907.03
2022-11-07T02:53:45.196Z,99905.94
2022-11-07T02:56:12.235Z,99896.44
2022-11-07T02:58:38.868Z,99890.34
2022-11-07T03:01:09.325Z,99888.53
2022-11-07T03:03:39.496Z,99897.50
2022-11-07T03:06:08.105Z,99887.50
2022-11-07T03:08:34.858Z,99878.22
2022-11-07T03:11:02.239Z,99871.06
2022-11-07T03:13:29.006Z,99859.28
2022-11-07T03:15:56.084Z,99854.22
2022-11-07T03:18:23.200Z,99850.81
2022-11-07T03:20:49.690Z,99848.91
2022-11-07T03:23:16.727Z,99846.16
2022-11-07T03:25:43.548Z,99831.69
2022-11-07T03:28:10.100Z,99839.25
2022-11-07T03:30:36.566Z,99831.47
2022-11-07T03:33:03.101Z,99838.22
2022-11-07T03:35:29.666Z,99821.25
2022-11-07T03:37:56.297Z,99821.44
2022-11-07T03:40:22.917Z,99828.69
2022-11-07T03:42:49.567Z,99820.94
2022-11-07T03:45:17.383Z,99821.03
2022-11-07T03:47:46.327Z,99814.78
2022-11-07T03:50:19.254Z,99818.03
2022-11-07T03:52:46.598Z,99815.56
2022-11-07T03:55:16.216Z,99805.41
2022-11-07T03:57:43.002Z,99802.78
2022-11-07T04:00:10.644Z,99804.31
2022-11-07T04:02:37.424Z,99807.47
2022-11-07T04:05:04.879Z,99804.75
2022-11-07T04:07:31.397Z,99808.88
2022-11-07T04:09:57.869Z,99813.22
2022-11-07T04:12:42.714Z,99820.09
2022-11-07T04:15:29.437Z,99829.38
2022-11-07T04:17:56.232Z,99840.09
2022-11-07T04:20:23.034Z,99830.25
2022-11-07T04:22:49.760Z,99815.78
2022-11-07T04:25:16.243Z,99809.00
2022-11-07T04:27:42.903Z,99808.00
2022-11-07T04:30:26.769Z,99806.94
2022-11-07T04:32:55.902Z,99807.63
2022-11-07T04:35:25.254Z,99814.22
2022-11-07T04:37:52.544Z,99829.59
2022-11-07T04:40:20.369Z,99827.00
2022-11-07T04:42:48.442Z,99832.94
2022-11-07T04:45:15.524Z,99831.13
2022-11-07T04:47:42.073Z,99832.66
2022-11-07T04:50:11.601Z,99824.09
2022-11-07T04:52:38.488Z,99821.16
2022-11-07T04:55:06.330Z,99831.50
2022-11-07T04:57:32.945Z,99845.09
2022-11-07T04:59:59.473Z,99854.22
2022-11-07T05:02:26.237Z,99851.50
2022-11-07T05:04:53.031Z,99845.63
2022-11-07T05:07:21.047Z,99853.22
2022-11-07T05:09:47.958Z,99864.00
2022-11-07T05:12:14.429Z,99873.19
2022-11-07T05:14:40.960Z,99859.44
2022-11-07T05:17:07.602Z,99853.84
2022-11-07T05:19:34.174Z,99858.50
2022-11-07T05:22:19.218Z,99852.91
2022-11-07T05:24:45.611Z,99824.28
2022-11-07T05:27:19.654Z,99831.13
2022-11-07T05:29:46.697Z,99837.38
2022-11-07T05:32:14.345Z,99849.56
2022-11-07T05:34:41.154Z,99852.00
2022-11-07T05:37:11.994Z,99853.34
2022-11-07T05:39:38.649Z,99847.41
2022-11-07T05:42:05.190Z,99842.72
2022-11-07T05:44:31.830Z,99863.06
2022-11-07T05:46:58.720Z,99857.91
2022-11-07T05:49:26.180Z,99852.25
2022-11-07T05:51:53.492Z,99851.47
2022-11-07T05:54:20.526Z,99859.06
2022-11-07T05:56:47.028Z,99852.41
2022-11-07T05:59:13.995Z,99853.59
2022-11-07T06:01:40.913Z,99850.78
2022-11-07T06:04:07.888Z,99846.50
2022-11-07T06:06:34.754Z,99837.75
2022-11-07T06:09:01.251Z,99829.34
2022-11-07T06:11:27.744Z,99827.41
2022-11-07T06:13:55.444Z,99834.94
2022-11-07T06:16:22.032Z,99831.34
2022-11-07T06:18:48.955Z,99832.41
2022-11-07T06:21:16.833Z,99835.00
2022-11-07T06:23:43.769Z,99826.56
2022-11-07T06:26:10.616Z,99833.16
2022-11-07T06:28:37.241Z,99830.69
2022-11-07T06:31:04.565Z,99823.84
2022-11-07T06:33:32.110Z,99822.97
2022-11-07T06:36:09.981Z,99812.25
2022-11-07T06:38:37.629Z,99822.41
2022-11-07T06:41:13.541Z,99827.59
2022-11-07T06:43:40.809Z,99820.97
2022-11-07T06:46:11.706Z,99817.59
2022-11-07T06:48:38.619Z,99825.31
2022-11-07T06:51:06.642Z,99824.78
2022-11-07T06:53:33.569Z,99833.28
2022-11-07T06:56:01.429Z,99836.50
2022-11-07T06:58:28.002Z,99848.34
2022-11-07T07:00:58.598Z,99850.69
2022-11-07T07:03:25.193Z,99852.34
2022-11-07T07:05:51.830Z,99860.00
2022-11-07T07:08:18.540Z,99848.75
2022-11-07T07:10:46.024Z,99852.81
2022-11-07T07:13:14.604Z,99844.31
2022-11-07T07:15:50.827Z,99845.03
2022-11-07T07:18:19.155Z,99844.06
2022-11-07T07:20:46.627Z,99840.00
2022-11-07T07:23:13.225Z,99850.03
2022-11-07T07:25:39.746Z,99839.25
2022-11-07T07:28:06.329Z,99846.84
2022-11-07T07:30:33.019Z,99841.38
2022-11-07T07:32:59.773Z,99849.81
2022-11-07T07:35:26.373Z,99858.69
2022-11-07T07:37:53.109Z,99858.44
2022-11-07T07:40:20.372Z,99857.97
2022-11-07T07:42:47.304Z,99886.69
2022-11-07T07:45:15.637Z,99900.69
2022-11-07T07:47:42.440Z,99911.94
2022-11-07T07:50:11.579Z,99919.63
2022-11-07T07:52:38.103Z,99928.31
2022-11-07T07:55:07.876Z,99933.16
2022-11-07T07:57:42.574Z,99918.78
2022-11-07T08:00:09.716Z,99915.03
2022-11-07T08:02:36.487Z,99927.13
2022-11-07T08:05:03.341Z,99927.50
2022-11-07T08:07:30.344Z,99933.47
2022-11-07T08:09:59.373Z,99942.94
2022-11-07T08:12:28.669Z,99938.41
2022-11-07T08:14:55.179Z,99937.59
2022-11-07T08:17:21.707Z,99942.03
2022-11-07T08:19:48.264Z,99947.34
2022-11-07T08:22:14.725Z,99939.25
2022-11-07T08:24:43.279Z,99936.22
2022-11-07T08:27:09.821Z,99943.22
2022-11-07T08:29:36.408Z,99939.31
2022-11-07T08:32:02.904Z,99939.53
2022-11-07T08:34:29.395Z,99940.84
2022-11-07T08:36:55.878Z,99945.06
2022-11-07T08:39:22.473Z,99931.69
2022-11-07T08:41:49.027Z,99929.38
2022-11-07T08:44:15.598Z,99927.91
2022-11-07T08:46:42.166Z,99923.94
2022-11-07T08:49:08.809Z,99922.44
2022-11-07T08:51:35.526Z,99920.13
2022-11-07T08:54:02.535Z,99928.03
2022-11-07T08:56:29.558Z,99925.69
2022-11-07T08:58:56.124Z,99921.72
2022-11-07T09:01:22.805Z,99916.03
2022-11-07T09:03:56.500Z,99925.69
2022-11-07T09:06:24.695Z,99923.72
2022-11-07T09:08:51.215Z,99933.97
2022-11-07T09:11:19.279Z,99936.38
2022-11-07T09:13:49.119Z,99934.28
2022-11-07T09:16:18.979Z,99935.31
2022-11-07T09:18:47.238Z,99937.09
2022-11-07T09:21:19.125Z,99948.63
2022-11-07T09:23:49.279Z,99943.13
2022-11-07T09:26:15.752Z,99951.69
2022-11-07T09:28:45.651Z,99951.81
2022-11-07T09:31:14.945Z,99962.19
2022-11-07T09:33:41.458Z,99963.00
2022-11-07T09:36:08.711Z,99960.03
2022-11-07T09:38:36.355Z,99966.00
2022-11-07T09:41:27.297Z,99960.03
2022-11-07T09:44:06.801Z,99957.50
2022-11-07T09:46:52.051Z,99954.41
2022-11-07T09:49:38.428Z,99959.13
2022-11-07T09:52:17.584Z,99969.00
2022-11-07T09:54:55.098Z,99964.09
2022-11-07T09:57:23.225Z,99968.53
2022-11-07T10:00:00.519Z,99971.34
2022-11-07T10:02:38.127Z,99979.09
2022-11-07T10:05:05.888Z,99970.50
2022-11-07T10:07:44.769Z,99965.66
2022-11-07T10:10:11.416Z,99964.91
2022-11-07T10:12:57.078Z,99963.28
2022-11-07T10:15:33.175Z,99970.88
2022-11-07T10:18:28.222Z,99978.00
2022-11-07T10:24:32.754Z,99974.47
2022-11-07T10:26:59.523Z,99980.66
2022-11-07T10:29:44.354Z,99970.56
2022-11-07T10:32:20.406Z,99975.91
2022-11-07T10:34:54.657Z,99968.19
2022-11-07T10:37:21.301Z,99959.75
2022-11-07T10:39:47.839Z,99965.31
2022-11-07T10:42:19.826Z,99958.47
2022-11-07T10:44:46.660Z,99974.19
2022-11-07T10:47:26.147Z,99967.47
2022-11-07T10:50:13.562Z,99963.97
2022-11-07T10:52:41.535Z,99958.47
2022-11-07T10:55:16.087Z,99959.47
2022-11-07T10:57:52.128Z,99961.34
2022-11-07T11:00:28.639Z,99959.94
2022-11-07T11:02:56.528Z,99950.72
2022-11-07T11:05:43.642Z,99957.78
2022-11-07T11:08:14.747Z,99963.13
2022-11-07T11:10:42.207Z,99952.19
2022-11-07T11:13:34.509Z,99949.78
2022-11-07T11:16:16.136Z,99951.50
2022-11-07T11:18:50.670Z,99944.88
2022-11-07T11:21:17.362Z,99940.88
2022-11-07T11:23:46.190Z,99939.13
2022-11-07T11:26:31.742Z,99938.38
2022-11-07T11:29:05.242Z,99933.34
2022-11-07T11:31:39.895Z,99929.84
2022-11-07T11:34:18.936Z,99916.25
2022-11-07T11:36:55.222Z,99918.94
2022-11-07T11:39:31.656Z,99915.50
2022-11-07T11:41:59.481Z,99909.69
2022-11-07T11:44:40.626Z,99912.28
2022-11-07T11:47:34.632Z,99899.47
2022-11-07T11:50:13.546Z,99902.06
2022-11-07T11:52:40.266Z,99904.66
2022-11-07T11:55:14.493Z,99887.41
2022-11-07T11:57:40.945Z,99885.00
2022-11-07T12:00:20.993Z,99882.47
2022-11-07T12:03:23.672Z,99879.09
2022-11-07T12:05:50.217Z,99871.38
2022-11-07T12:08:25.653Z,99862.81
2022-11-07T12:11:06.737Z,99858.53
2022-11-07T12:13:54.983Z,99847.31
2022-11-07T12:16:43.886Z,99841.41
2022-11-07T12:19:37.122Z,99840.53
2022-11-07T12:22:31.951Z,99833.66
2022-11-07T12:25:04.538Z,99836.25
2022-11-07T12:27:54.832Z,99831.09
2022-11-07T12:30:33.053Z,99830.25
2022-11-07T12:32:59.501Z,99827.69
2022-11-07T12:35:43.673Z,99814.75
2022-11-07T12:38:33.855Z,99822.53
2022-11-07T12:41:06.248Z,99818.22
2022-11-07T12:43:44.708Z,99810.53
2022-11-07T12:46:20.145Z,99801.88
2022-11-07T12:48:58.937Z,99798.47
2022-11-07T12:51:50.036Z,99790.69
2022-11-07T12:54:17.235Z,99780.38
2022-11-07T12:56:45.942Z,99786.44
2022-11-07T12:59:23.883Z,99776.13
2022-11-07T13:02:02.706Z,99777.81
2022-11-07T13:04:35.451Z,99775.25
2022-11-07T13:07:08.551Z,99773.59
2022-11-07T13:09:53.553Z,99768.41
2022-11-07T13:12:38.297Z,99761.50
2022-11-07T13:15:08.523Z,99750.28
2022-11-07T13:17:41.170Z,99749.41
2022-11-07T13:20:26.555Z,99752.00
2022-11-07T13:23:01.846Z,99745.09
2022-11-07T13:25:33.122Z,99751.13
2022-11-07T13:28:06.226Z,99745.94
2022-11-07T13:30:32.693Z,99733.84
2022-11-07T13:33:00.547Z,99732.97
2022-11-07T13:35:33.839Z,99728.66
2022-11-07T13:38:08.753Z,99730.38
2022-11-07T13:40:38.668Z,99731.25
2022-11-07T13:43:10.814Z,99736.44
2022-11-07T13:45:47.708Z,99726.94
2022-11-07T13:48:33.631Z,99716.56
2022-11-07T13:51:05.321Z,99713.09
2022-11-07T13:53:42.179Z,99713.13
2022-11-07T13:56:40.164Z,99715.72
2022-11-07T13:59:13.573Z,99713.97
2022-11-07T14:01:45.510Z,99705.34
2022-11-07T14:04:14.464Z,99702.75
2022-11-07T14:06:41.868Z,99701.88
2022-11-07T14:09:09.160Z,99690.66
2022-11-07T14:11:37.119Z,99694.97
2022-11-07T14:14:03.801Z,99698.44
2022-11-07T14:16:33.233Z,99700.16
2022-11-07T14:19:03.387Z,99688.09
2022-11-07T14:21:34.761Z,99688.09
2022-11-07T14:24:02.059Z,99690.69
2022-11-07T14:26:32.726Z,99674.25
2022-11-07T14:29:01.105Z,99686.38
2022-11-07T14:31:33.656Z,99681.19
2022-11-07T14:34:03.697Z,99681.19
2022-11-07T14:36:31.339Z,99677.75
2022-11-07T14:39:07.906Z,99669.09
2022-11-07T14:41:42.241Z,99681.22
2022-11-07T14:44:15.632Z,99683.78
2022-11-07T14:46:42.297Z,99671.66
2022-11-07T14:49:28.671Z,99665.63
2022-11-07T14:51:56.066Z,99674.28
2022-11-07T14:54:28.774Z,99667.34
2022-11-07T14:56:56.460Z,99669.06
2022-11-07T14:59:26.350Z,99672.53
2022-11-07T15:01:59.438Z,99664.72
2022-11-07T15:04:35.218Z,99663.03
2022-11-07T15:07:20.174Z,99657.81
2022-11-07T15:09:46.794Z,99656.13
2022-11-07T15:12:31.513Z,99650.06
2022-11-07T15:15:02.564Z,99656.97
2022-11-07T15:17:29.599Z,99653.50
2022-11-07T15:20:00.365Z,99649.19
2022-11-07T15:22:36.372Z,99649.19
2022-11-07T15:25:03.483Z,99643.16
2022-11-07T15:27:40.333Z,99643.16
2022-11-07T15:30:24.636Z,99643.19
2022-11-07T15:32:51.471Z,99643.19
2022-11-07T15:35:43.040Z,99644.94
2022-11-07T15:38:06.997Z,99632.00
2022-11-07T15:40:33.665Z,99619.88
2022-11-07T15:43:00.306Z,99619.88
2022-11-07T15:45:27.062Z,99624.22
2022-11-07T15:47:53.588Z,99619.91
2022-11-07T15:50:25.838Z,99624.19
2022-11-07T15:52:54.178Z,99612.16
2022-11-07T15:55:22.812Z,99613.84
2022-11-07T15:57:51.670Z,99618.16
2022-11-07T16:00:21.345Z,99615.59
2022-11-07T16:02:48.038Z,99607.81
2022-11-07T16:05:16.008Z,99606.97
2022-11-07T16:07:44.663Z,99609.56
2022-11-07T16:10:25.067Z,99612.16
2022-11-07T16:12:53.170Z,99617.31
2022-11-07T16:15:22.797Z,99613.00
2022-11-07T16:17:49.622Z,99601.78
2022-11-07T16:20:21.614Z,99596.63
2022-11-07T16:22:49.612Z,99593.16
2022-11-07T16:25:22.073Z,99597.47
2022-11-07T16:27:55.019Z,99593.16
2022-11-07T16:30:22.545Z,99600.03
2022-11-07T16:32:49.134Z,99596.59
2022-11-07T16:35:16.077Z,99598.31
2022-11-07T16:37:42.851Z,99599.16
2022-11-07T16:40:14.355Z,99596.50
2022-11-07T16:42:40.988Z,99593.94
2022-11-07T16:45:08.460Z,99586.16
2022-11-07T16:47:38.144Z,99587.03
2022-11-07T16:50:06.020Z,99582.75
2022-11-07T16:52:32.712Z,99581.84
2022-11-07T16:55:00.202Z,99581.84
2022-11-07T16:57:26.961Z,99584.38
2022-11-07T16:59:53.531Z,99580.97
2022-11-07T17:02:23.410Z,99586.09
2022-11-07T17:04:51.818Z,99588.66
2022-11-07T17:07:20.634Z,99596.41
2022-11-07T17:09:47.505Z,99594.66
2022-11-07T17:12:16.654Z,99585.19
2022-11-07T17:14:43.483Z,99589.50
2022-11-07T17:17:12.967Z,99587.75
2022-11-07T17:19:39.814Z,99584.31
2022-11-07T17:22:06.860Z,99575.69
2022-11-07T17:24:33.437Z,99589.47
2022-11-07T17:27:00.254Z,99588.63
2022-11-07T17:29:26.976Z,99589.44
2022-11-07T17:31:53.853Z,99584.25
2022-11-07T17:34:21.494Z,99581.69
2022-11-07T17:36:50.850Z,99587.72
2022-11-07T17:39:20.625Z,99588.53
2022-11-07T17:41:49.943Z,99590.19
2022-11-07T17:44:17.526Z,99590.22
2022-11-07T17:46:49.193Z,99588.47
2022-11-07T17:49:17.901Z,99584.16
2022-11-07T17:51:44.862Z,99582.41
2022-11-07T17:54:13.167Z,99577.25
2022-11-07T17:56:40.279Z,99584.13
2022-11-07T17:59:15.908Z,99572.97
2022-11-07T18:01:43.562Z,99570.31
2022-11-07T18:04:12.629Z,99570.38
2022-11-07T18:06:41.340Z,99566.03
2022-11-07T18:09:14.909Z,99556.50
2022-11-07T18:11:42.100Z,99562.47
2022-11-07T18:14:11.944Z,99553.88
2022-11-07T18:16:38.936Z,99541.81
2022-11-07T18:19:06.047Z,99546.97
2022-11-07T18:21:33.365Z,99533.25
2022-11-07T18:23:59.842Z,99533.19
2022-11-07T18:26:31.024Z,99527.13
2022-11-07T18:29:04.537Z,99529.72
2022-11-07T18:31:31.069Z,99526.25
2022-11-07T18:33:59.928Z,99521.06
2022-11-07T18:36:27.285Z,99516.72
2022-11-07T18:38:53.828Z,99525.34
2022-11-07T18:41:23.515Z,99522.75
2022-11-07T18:43:50.666Z,99511.53
2022-11-07T18:46:22.030Z,99511.53
2022-11-07T18:48:49.007Z,99503.81
2022-11-07T18:51:18.211Z,99497.78
2022-11-07T18:53:44.886Z,99487.44
2022-11-07T18:56:13.103Z,99497.69
2022-11-07T18:58:41.442Z,99488.25
2022-11-07T19:01:13.087Z,99489.13
2022-11-07T19:03:41.012Z,99485.72
2022-11-07T19:06:09.464Z,99481.38
2022-11-07T19:08:39.439Z,99479.59
2022-11-07T19:11:11.198Z,99478.72
2022-11-07T19:13:40.252Z,99475.25
2022-11-07T19:16:09.298Z,99454.69
2022-11-07T19:18:36.203Z,99469.28
2022-11-07T19:21:06.365Z,99473.56
2022-11-07T19:23:36.392Z,99464.94
2022-11-07T19:26:04.195Z,99461.53
2022-11-07T19:28:30.750Z,99456.31
2022-11-07T19:30:57.426Z,99466.69
2022-11-07T19:33:23.931Z,99458.06
2022-11-07T19:36:01.612Z,99455.47
2022-11-07T19:38:30.470Z,99446.84
2022-11-07T19:40:57.826Z,99439.94
2022-11-07T19:43:24.381Z,99451.22
2022-11-07T19:45:51.033Z,99452.91
2022-11-07T19:48:18.977Z,99464.13
2022-11-07T19:50:45.586Z,99458.94
2022-11-07T19:53:12.438Z,99452.09
2022-11-07T19:55:39.214Z,99453.81
2022-11-07T19:58:05.946Z,99451.16
2022-11-07T20:00:32.788Z,99444.34
2022-11-07T20:02:59.540Z,99445.19
2022-11-07T20:05:27.067Z,99444.38
2022-11-07T20:07:58.054Z,99438.41
2022-11-07T20:10:27.584Z,99440.09
2022-11-07T20:12:55.586Z,99423.75
2022-11-07T20:15:22.398Z,99428.94
2022-11-07T20:17:49.030Z,99433.25
2022-11-07T20:20:15.676Z,99428.09
2022-11-07T20:22:47.386Z,99420.38
2022-11-07T20:25:14.217Z,99408.34
2022-11-07T20:27:40.970Z,99406.66
2022-11-07T20:30:08.441Z,99419.56
2022-11-07T20:32:36.593Z,99406.59
2022-11-07T20:35:03.818Z,99413.53
2022-11-07T20:37:30.380Z,99404.94
2022-11-07T20:39:56.855Z,99398.91
2022-11-07T20:42:23.416Z,99403.19
2022-11-07T20:44:51.099Z,99404.06
2022-11-07T20:47:17.982Z,99403.25
2022-11-07T20:49:44.623Z,99400.66
2022-11-07T20:52:11.391Z,99392.06
2022-11-07T20:54:38.017Z,99390.34
2022-11-07T20:57:04.689Z,99399.78
2022-11-07T20:59:31.986Z,99398.94
2022-11-07T21:02:03.147Z,99399.78
2022-11-07T21:04:44.402Z,99410.09
2022-11-07T21:07:19.800Z,99411.00
2022-11-07T21:09:46.997Z,99417.03
2022-11-07T21:12:13.761Z,99418.75
2022-11-07T21:14:42.619Z,99422.19
2022-11-07T21:17:09.875Z,99421.31
2022-11-07T21:19:36.581Z,99419.63
2022-11-07T21:22:04.089Z,99423.03
2022-11-07T21:24:31.033Z,99419.63
2022-11-07T21:26:57.938Z,99421.31
2022-11-07T21:29:29.327Z,99421.31
2022-11-07T21:31:57.023Z,99416.16
2022-11-07T21:34:24.236Z,99423.88
2022-11-07T21:36:50.786Z,99420.44
2022-11-07T21:39:17.956Z,99431.63
2022-11-07T21:41:45.269Z,99427.34
2022-11-07T21:44:12.467Z,99426.47
2022-11-07T21:46:39.224Z,99429.06
2022-11-07T21:49:06.435Z,99435.91
2022-11-07T21:51:36.889Z,99448.00
2022-11-07T21:54:05.103Z,99439.38
2022-11-07T21:56:34.524Z,99429.06
2022-11-07T21:59:03.965Z,99434.22
2022-11-07T22:01:35.163Z,99425.59
2022-11-07T22:04:08.752Z,99436.81
2022-11-07T22:06:37.911Z,99432.47
2022-11-07T22:09:06.199Z,99436.75
2022-11-07T22:11:33.140Z,99417.00
2022-11-07T22:13:59.617Z,99426.47
2022-11-07T22:16:26.153Z,99423.84
2022-11-07T22:18:52.756Z,99429.00
2022-11-07T22:21:21.641Z,99434.16
2022-11-07T22:23:48.756Z,99417.78
2022-11-07T22:26:18.506Z,99404.81
2022-11-07T22:28:46.456Z,99392.81
2022-11-07T22:31:25.110Z,99391.97
2022-11-07T22:33:53.446Z,99392.00
2022-11-07T22:36:20.785Z,99381.66
2022-11-07T22:38:47.566Z,99377.34
2022-11-07T22:41:17.628Z,99364.44
2022-11-07T22:43:44.631Z,99363.53
2022-11-07T22:46:14.026Z,99363.56
2022-11-07T22:48:40.885Z,99369.56
2022-11-07T22:51:10.635Z,99369.53
2022-11-07T22:53:38.073Z,99376.44
2022-11-07T22:56:17.099Z,99360.91
2022-11-07T22:58:45.223Z,99354.91
2022-11-07T23:01:20.650Z,99352.28
2022-11-07T23:03:48.832Z,99351.41
2022-11-07T23:06:17.076Z,99335.91
2022-11-07T23:08:44.442Z,99325.59
2022-11-07T23:11:44.725Z,99311.03
2022-11-07T23:14:04.321Z,99306.75
2022-11-07T23:16:38.750Z,99302.47
2022-11-07T23:19:06.638Z,99310.19
2022-11-07T23:21:34.548Z,99311.03
2022-11-07T23:24:01.379Z,99312.78
2022-11-07T23:26:35.850Z,99312.78
2022-11-07T23:29:07.287Z,99305.06
2022-11-07T23:31:36.986Z,99305.03
2022-11-07T23:34:03.940Z,99298.16
2022-11-07T23:36:30.398Z,99277.50
2022-11-07T23:38:56.896Z,99275.00
2022-11-07T23:41:23.401Z,99273.22
2022-11-07T23:43:52.755Z,99267.22
2022-11-07T23:46:37.869Z,99274.94
2022-11-07T23:49:22.519Z,99268.91
2022-11-07T23:51:49.058Z,99262.09
2022-11-07T23:54:34.054Z,99269.78
2022-11-07T23:57:00.885Z,99272.41
2022-11-07T23:59:45.657Z,99274.94
